sensor_id;sensor_type;location;lat;lon;timestamp;temperature;humidity
17146;DHT22;8688;54.444;18.444;2022-11-12T00:01:01;11.20;99.90
17146;DHT22;8688;54.444;18.444;2022-11-12T00:03:29;11.30;99.90
17146;DHT22;8688;54.444;18.444;2022-11-12T00:05:56;11.30;99.90
17146;DHT22;8688;54.444;18.444;2022-11-12T00:08:25;11.20;99.90
17146;DHT22;8688;54.444;18.444;2022-11-12T00:10:53;11.20;99.90
17146;DHT22;8688;54.444;18.444;2022-11-12T00:13:20;11.20;99.90
17146;DHT22;8688;54.444;18.444;2022-11-12T00:15:47;11.20;99.90
17146;DHT22;8688;54.444;18.444;2022-11-12T00:18:15;11.20;99.90
17146;DHT22;8688;54.444;18.444;2022-11-12T00:20:43;11.20;99.90
17146;DHT22;8688;54.444;18.444;2022-11-12T00:23:10;11.20;99.90
17146;DHT22;8688;54.444;18.444;2022-11-12T00:25:39;11.20;99.90
17146;DHT22;8688;54.444;18.444;2022-11-12T00:28:08;11.20;99.90
17146;DHT22;8688;54.444;18.444;2022-11-12T00:30:38;11.10;99.90
17146;DHT22;8688;54.444;18.444;2022-11-12T00:33:06;11.10;99.90
17146;DHT22;8688;54.444;18.444;2022-11-12T00:35:34;11.20;99.90
17146;DHT22;8688;54.444;18.444;2022-11-12T00:38:02;11.10;99.90
17146;DHT22;8688;54.444;18.444;2022-11-12T00:40:29;11.20;99.90
17146;DHT22;8688;54.444;18.444;2022-11-12T00:42:58;11.20;99.90
17146;DHT22;8688;54.444;18.444;2022-11-12T00:45:25;11.10;99.90
17146;DHT22;8688;54.444;18.444;2022-11-12T00:47:54;11.20;99.90
17146;DHT22;8688;54.444;18.444;2022-11-12T00:50:22;11.10;99.90
17146;DHT22;8688;54.444;18.444;2022-11-12T00:52:51;11.10;99.90
17146;DHT22;8688;54.444;18.444;2022-11-12T00:55:18;11.10;99.90
17146;DHT22;8688;54.444;18.444;2022-11-12T00:57:46;11.20;99.90
17146;DHT22;8688;54.444;18.444;2022-11-12T01:00:17;11.10;99.90
17146;DHT22;8688;54.444;18.444;2022-11-12T01:02:45;11.10;99.90
17146;DHT22;8688;54.444;18.444;2022-11-12T01:05:12;11.20;99.90
17146;DHT22;8688;54.444;18.444;2022-11-12T01:07:40;11.10;99.90
17146;DHT22;8688;54.444;18.444;2022-11-12T01:10:08;11.10;99.90
17146;DHT22;8688;54.444;18.444;2022-11-12T01:12:36;11.10;99.90
17146;DHT22;8688;54.444;18.444;2022-11-12T01:15:04;11.10;99.90
17146;DHT22;8688;54.444;18.444;2022-11-12T01:17:34;11.10;99.90
17146;DHT22;8688;54.444;18.444;2022-11-12T01:20:01;11.10;99.90
17146;DHT22;8688;54.444;18.444;2022-11-12T01:22:29;11.10;99.90
17146;DHT22;8688;54.444;18.444;2022-11-12T01:24:56;11.10;99.90
17146;DHT22;8688;54.444;18.444;2022-11-12T01:27:24;11.10;99.90
17146;DHT22;8688;54.444;18.444;2022-11-12T01:29:51;11.10;99.90
17146;DHT22;8688;54.444;18.444;2022-11-12T01:32:18;11.10;99.90
17146;DHT22;8688;54.444;18.444;2022-11-12T01:34:49;11.10;99.90
17146;DHT22;8688;54.444;18.444;2022-11-12T01:37:16;11.10;99.90
17146;DHT22;8688;54.444;18.444;2022-11-12T01:39:44;11.10;99.90
17146;DHT22;8688;54.444;18.444;2022-11-12T01:42:11;11.10;99.90
17146;DHT22;8688;54.444;18.444;2022-11-12T01:44:42;11.10;99.90
17146;DHT22;8688;54.444;18.444;2022-11-12T01:47:13;11.10;99.90
17146;DHT22;8688;54.444;18.444;2022-11-12T01:49:48;11.10;99.90
17146;DHT22;8688;54.444;18.444;2022-11-12T01:52:23;11.10;99.90
17146;DHT22;8688;54.444;18.444;2022-11-12T01:54:55;11.10;99.90
17146;DHT22;8688;54.444;18.444;2022-11-12T01:57:27;11.10;99.90
17146;DHT22;8688;54.444;18.444;2022-11-12T01:59:59;11.10;99.90
17146;DHT22;8688;54.444;18.444;2022-11-12T02:02:29;11.10;99.90
17146;DHT22;8688;54.444;18.444;2022-11-12T02:04:57;11.10;99.90
17146;DHT22;8688;54.444;18.444;2022-11-12T02:07:27;11.10;99.90
17146;DHT22;8688;54.444;18.444;2022-11-12T02:09:55;11.10;99.90
17146;DHT22;8688;54.444;18.444;2022-11-12T02:12:24;11.10;99.90
17146;DHT22;8688;54.444;18.444;2022-11-12T02:15:09;11.10;99.90
17146;DHT22;8688;54.444;18.444;2022-11-12T02:17:37;11.10;99.90
17146;DHT22;8688;54.444;18.444;2022-11-12T02:20:08;11.10;99.90
17146;DHT22;8688;54.444;18.444;2022-11-12T02:22:37;11.10;99.90
17146;DHT22;8688;54.444;18.444;2022-11-12T02:25:06;11.10;99.90
17146;DHT22;8688;54.444;18.444;2022-11-12T02:27:35;11.20;99.90
17146;DHT22;8688;54.444;18.444;2022-11-12T02:30:03;11.20;99.90
17146;DHT22;8688;54.444;18.444;2022-11-12T02:32:31;11.20;99.90
17146;DHT22;8688;54.444;18.444;2022-11-12T02:34:58;11.20;99.90
17146;DHT22;8688;54.444;18.444;2022-11-12T02:39:55;11.20;99.90
17146;DHT22;8688;54.444;18.444;2022-11-12T02:42:22;11.20;99.90
17146;DHT22;8688;54.444;18.444;2022-11-12T02:44:50;11.20;99.90
17146;DHT22;8688;54.444;18.444;2022-11-12T02:47:17;11.20;99.90
17146;DHT22;8688;54.444;18.444;2022-11-12T02:49:45;11.20;99.90
17146;DHT22;8688;54.444;18.444;2022-11-12T02:52:12;11.30;99.90
17146;DHT22;8688;54.444;18.444;2022-11-12T02:54:39;11.30;99.90
17146;DHT22;8688;54.444;18.444;2022-11-12T02:57:08;11.30;99.90
17146;DHT22;8688;54.444;18.444;2022-11-12T02:59:36;11.20;99.90
17146;DHT22;8688;54.444;18.444;2022-11-12T03:02:03;11.30;99.90
17146;DHT22;8688;54.444;18.444;2022-11-12T03:04:30;11.30;99.90
17146;DHT22;8688;54.444;18.444;2022-11-12T03:09:26;11.30;99.90
17146;DHT22;8688;54.444;18.444;2022-11-12T03:11:53;11.30;99.90
17146;DHT22;8688;54.444;18.444;2022-11-12T03:14:23;11.30;99.90
17146;DHT22;8688;54.444;18.444;2022-11-12T03:16:51;11.30;99.90
17146;DHT22;8688;54.444;18.444;2022-11-12T03:19:19;11.30;99.90
17146;DHT22;8688;54.444;18.444;2022-11-12T03:21:46;11.30;99.90
17146;DHT22;8688;54.444;18.444;2022-11-12T03:24:14;11.30;99.90
17146;DHT22;8688;54.444;18.444;2022-11-12T03:26:41;11.30;99.90
17146;DHT22;8688;54.444;18.444;2022-11-12T03:29:08;11.30;99.90
17146;DHT22;8688;54.444;18.444;2022-11-12T03:31:37;11.30;99.90
17146;DHT22;8688;54.444;18.444;2022-11-12T03:34:05;11.30;99.90
17146;DHT22;8688;54.444;18.444;2022-11-12T03:36:33;11.30;99.90
17146;DHT22;8688;54.444;18.444;2022-11-12T03:39:01;11.30;99.90
17146;DHT22;8688;54.444;18.444;2022-11-12T03:41:28;11.30;99.90
17146;DHT22;8688;54.444;18.444;2022-11-12T03:43:55;11.30;99.90
17146;DHT22;8688;54.444;18.444;2022-11-12T03:46:23;11.30;99.90
17146;DHT22;8688;54.444;18.444;2022-11-12T03:48:52;11.30;99.90
17146;DHT22;8688;54.444;18.444;2022-11-12T03:51:19;11.30;99.90
17146;DHT22;8688;54.444;18.444;2022-11-12T03:53:47;11.30;99.90
17146;DHT22;8688;54.444;18.444;2022-11-12T03:56:14;11.30;99.90
17146;DHT22;8688;54.444;18.444;2022-11-12T03:58:42;11.30;99.90
17146;DHT22;8688;54.444;18.444;2022-11-12T04:01:09;11.30;99.90
17146;DHT22;8688;54.444;18.444;2022-11-12T04:03:36;11.30;99.90
17146;DHT22;8688;54.444;18.444;2022-11-12T04:06:06;11.30;99.90
17146;DHT22;8688;54.444;18.444;2022-11-12T04:08:51;11.30;99.90
17146;DHT22;8688;54.444;18.444;2022-11-12T04:11:18;11.30;99.90
17146;DHT22;8688;54.444;18.444;2022-11-12T04:13:45;11.30;99.90
17146;DHT22;8688;54.444;18.444;2022-11-12T04:16:13;11.40;99.90
17146;DHT22;8688;54.444;18.444;2022-11-12T04:19:00;11.30;99.90
17146;DHT22;8688;54.444;18.444;2022-11-12T04:21:47;11.30;99.90
17146;DHT22;8688;54.444;18.444;2022-11-12T04:24:22;11.40;99.90
17146;DHT22;8688;54.444;18.444;2022-11-12T04:27:08;11.30;99.90
17146;DHT22;8688;54.444;18.444;2022-11-12T04:29:36;11.40;99.90
17146;DHT22;8688;54.444;18.444;2022-11-12T04:32:21;11.40;99.90
17146;DHT22;8688;54.444;18.444;2022-11-12T04:34:48;11.40;99.90
17146;DHT22;8688;54.444;18.444;2022-11-12T04:37:18;11.40;99.90
17146;DHT22;8688;54.444;18.444;2022-11-12T04:39:45;11.40;99.90
17146;DHT22;8688;54.444;18.444;2022-11-12T04:42:12;11.40;99.90
17146;DHT22;8688;54.444;18.444;2022-11-12T04:44:57;11.40;99.90
17146;DHT22;8688;54.444;18.444;2022-11-12T04:47:33;11.40;99.90
17146;DHT22;8688;54.444;18.444;2022-11-12T04:50:03;11.40;99.90
17146;DHT22;8688;54.444;18.444;2022-11-12T04:52:32;11.40;99.90
17146;DHT22;8688;54.444;18.444;2022-11-12T04:54:59;11.40;99.90
17146;DHT22;8688;54.444;18.444;2022-11-12T04:57:26;11.40;99.90
17146;DHT22;8688;54.444;18.444;2022-11-12T04:59:54;11.40;99.90
17146;DHT22;8688;54.444;18.444;2022-11-12T05:02:21;11.40;99.90
17146;DHT22;8688;54.444;18.444;2022-11-12T05:07:24;11.50;99.90
17146;DHT22;8688;54.444;18.444;2022-11-12T05:09:52;11.50;99.90
17146;DHT22;8688;54.444;18.444;2022-11-12T05:12:20;11.40;99.90
17146;DHT22;8688;54.444;18.444;2022-11-12T05:14:48;11.50;99.90
17146;DHT22;8688;54.444;18.444;2022-11-12T05:17:15;11.40;99.90
17146;DHT22;8688;54.444;18.444;2022-11-12T05:19:42;11.50;99.90
17146;DHT22;8688;54.444;18.444;2022-11-12T05:22:10;11.50;99.90
17146;DHT22;8688;54.444;18.444;2022-11-12T05:24:39;11.50;99.90
17146;DHT22;8688;54.444;18.444;2022-11-12T05:27:11;11.50;99.90
17146;DHT22;8688;54.444;18.444;2022-11-12T05:29:38;11.50;99.90
17146;DHT22;8688;54.444;18.444;2022-11-12T05:32:07;11.50;99.90
17146;DHT22;8688;54.444;18.444;2022-11-12T05:34:34;11.50;99.90
17146;DHT22;8688;54.444;18.444;2022-11-12T05:37:04;11.50;99.90
17146;DHT22;8688;54.444;18.444;2022-11-12T05:39:31;11.50;99.90
17146;DHT22;8688;54.444;18.444;2022-11-12T05:41:59;11.50;99.90
17146;DHT22;8688;54.444;18.444;2022-11-12T05:44:28;11.50;99.90
17146;DHT22;8688;54.444;18.444;2022-11-12T05:46:55;11.50;99.90
17146;DHT22;8688;54.444;18.444;2022-11-12T05:51:55;11.50;99.90
17146;DHT22;8688;54.444;18.444;2022-11-12T05:54:22;11.60;99.90
17146;DHT22;8688;54.444;18.444;2022-11-12T05:56:50;11.50;99.90
17146;DHT22;8688;54.444;18.444;2022-11-12T05:59:18;11.50;99.90
17146;DHT22;8688;54.444;18.444;2022-11-12T06:01:47;11.50;99.90
17146;DHT22;8688;54.444;18.444;2022-11-12T06:04:15;11.50;99.90
17146;DHT22;8688;54.444;18.444;2022-11-12T06:06:43;11.60;99.90
17146;DHT22;8688;54.444;18.444;2022-11-12T06:09:11;11.60;99.90
17146;DHT22;8688;54.444;18.444;2022-11-12T06:11:38;11.60;99.90
17146;DHT22;8688;54.444;18.444;2022-11-12T06:14:05;11.60;99.90
17146;DHT22;8688;54.444;18.444;2022-11-12T06:16:33;11.60;99.90
17146;DHT22;8688;54.444;18.444;2022-11-12T06:19:02;11.60;99.90
17146;DHT22;8688;54.444;18.444;2022-11-12T06:21:29;11.60;99.90
17146;DHT22;8688;54.444;18.444;2022-11-12T06:23:58;11.60;99.90
17146;DHT22;8688;54.444;18.444;2022-11-12T06:26:27;11.60;99.90
17146;DHT22;8688;54.444;18.444;2022-11-12T06:28:55;11.60;99.90
17146;DHT22;8688;54.444;18.444;2022-11-12T06:31:23;11.60;99.90
17146;DHT22;8688;54.444;18.444;2022-11-12T06:33:50;11.60;99.90
17146;DHT22;8688;54.444;18.444;2022-11-12T06:51:44;11.80;99.90
17146;DHT22;8688;54.444;18.444;2022-11-12T06:54:11;11.80;99.90
17146;DHT22;8688;54.444;18.444;2022-11-12T06:56:38;11.90;99.90
17146;DHT22;8688;54.444;18.444;2022-11-12T06:59:06;11.90;99.90
17146;DHT22;8688;54.444;18.444;2022-11-12T07:01:33;11.90;99.90
17146;DHT22;8688;54.444;18.444;2022-11-12T07:04:01;11.90;99.90
17146;DHT22;8688;54.444;18.444;2022-11-12T07:06:28;11.90;99.90
17146;DHT22;8688;54.444;18.444;2022-11-12T07:08:57;11.90;99.90
17146;DHT22;8688;54.444;18.444;2022-11-12T07:11:24;12.00;99.90
17146;DHT22;8688;54.444;18.444;2022-11-12T07:13:51;12.00;99.90
17146;DHT22;8688;54.444;18.444;2022-11-12T07:16:19;12.00;99.90
17146;DHT22;8688;54.444;18.444;2022-11-12T07:18:47;12.00;99.90
17146;DHT22;8688;54.444;18.444;2022-11-12T07:21:16;12.00;99.90
17146;DHT22;8688;54.444;18.444;2022-11-12T07:23:45;12.10;99.90
17146;DHT22;8688;54.444;18.444;2022-11-12T07:26:16;12.10;99.90
17146;DHT22;8688;54.444;18.444;2022-11-12T07:28:44;12.10;99.90
17146;DHT22;8688;54.444;18.444;2022-11-12T07:31:13;12.20;99.90
17146;DHT22;8688;54.444;18.444;2022-11-12T07:33:42;12.20;99.90
17146;DHT22;8688;54.444;18.444;2022-11-12T07:36:11;12.20;99.90
17146;DHT22;8688;54.444;18.444;2022-11-12T07:38:40;12.20;99.90
17146;DHT22;8688;54.444;18.444;2022-11-12T07:41:10;12.20;99.90
17146;DHT22;8688;54.444;18.444;2022-11-12T07:43:41;12.30;99.90
17146;DHT22;8688;54.444;18.444;2022-11-12T07:46:12;12.30;99.90
17146;DHT22;8688;54.444;18.444;2022-11-12T07:48:40;12.30;99.90
17146;DHT22;8688;54.444;18.444;2022-11-12T07:51:11;12.30;99.90
17146;DHT22;8688;54.444;18.444;2022-11-12T07:53:40;12.30;99.90
17146;DHT22;8688;54.444;18.444;2022-11-12T07:56:10;12.40;99.90
17146;DHT22;8688;54.444;18.444;2022-11-12T07:58:37;12.40;99.90
17146;DHT22;8688;54.444;18.444;2022-11-12T08:01:10;12.40;99.90
17146;DHT22;8688;54.444;18.444;2022-11-12T08:03:37;12.40;99.90
17146;DHT22;8688;54.444;18.444;2022-11-12T08:06:05;12.40;99.90
17146;DHT22;8688;54.444;18.444;2022-11-12T08:08:33;12.40;99.90
17146;DHT22;8688;54.444;18.444;2022-11-12T08:11:00;12.40;99.90
17146;DHT22;8688;54.444;18.444;2022-11-12T08:13:27;12.50;99.90
17146;DHT22;8688;54.444;18.444;2022-11-12T08:15:56;12.50;99.90
17146;DHT22;8688;54.444;18.444;2022-11-12T08:18:25;12.50;99.90
17146;DHT22;8688;54.444;18.444;2022-11-12T08:20:58;12.50;99.90
17146;DHT22;8688;54.444;18.444;2022-11-12T08:23:26;12.50;99.90
17146;DHT22;8688;54.444;18.444;2022-11-12T08:25:57;12.50;99.90
17146;DHT22;8688;54.444;18.444;2022-11-12T08:28:24;12.50;99.90
17146;DHT22;8688;54.444;18.444;2022-11-12T08:30:52;12.50;99.90
17146;DHT22;8688;54.444;18.444;2022-11-12T08:33:19;12.50;99.90
17146;DHT22;8688;54.444;18.444;2022-11-12T08:35:48;12.50;99.90
17146;DHT22;8688;54.444;18.444;2022-11-12T08:38:16;12.50;99.90
17146;DHT22;8688;54.444;18.444;2022-11-12T08:40:43;12.50;99.90
17146;DHT22;8688;54.444;18.444;2022-11-12T08:43:11;12.60;99.90
17146;DHT22;8688;54.444;18.444;2022-11-12T08:45:39;12.60;99.90
17146;DHT22;8688;54.444;18.444;2022-11-12T08:48:09;12.60;99.90
17146;DHT22;8688;54.444;18.444;2022-11-12T08:50:38;12.60;99.90
17146;DHT22;8688;54.444;18.444;2022-11-12T08:53:09;12.60;99.90
17146;DHT22;8688;54.444;18.444;2022-11-12T08:55:37;12.70;99.90
17146;DHT22;8688;54.444;18.444;2022-11-12T08:58:05;12.70;99.90
17146;DHT22;8688;54.444;18.444;2022-11-12T09:00:34;12.70;99.90
17146;DHT22;8688;54.444;18.444;2022-11-12T09:03:03;12.60;99.90
17146;DHT22;8688;54.444;18.444;2022-11-12T09:05:30;12.60;99.90
17146;DHT22;8688;54.444;18.444;2022-11-12T09:07:59;12.70;99.90
17146;DHT22;8688;54.444;18.444;2022-11-12T09:10:28;12.70;99.90
17146;DHT22;8688;54.444;18.444;2022-11-12T09:12:56;12.60;99.90
17146;DHT22;8688;54.444;18.444;2022-11-12T09:15:24;12.70;99.90
17146;DHT22;8688;54.444;18.444;2022-11-12T09:17:54;12.70;99.90
17146;DHT22;8688;54.444;18.444;2022-11-12T09:20:22;12.70;99.90
17146;DHT22;8688;54.444;18.444;2022-11-12T09:22:50;12.70;99.90
17146;DHT22;8688;54.444;18.444;2022-11-12T09:25:17;12.70;99.90
17146;DHT22;8688;54.444;18.444;2022-11-12T09:27:46;12.80;99.90
17146;DHT22;8688;54.444;18.444;2022-11-12T09:30:14;12.80;99.90
17146;DHT22;8688;54.444;18.444;2022-11-12T09:32:41;12.80;99.90
17146;DHT22;8688;54.444;18.444;2022-11-12T09:35:09;12.80;99.90
17146;DHT22;8688;54.444;18.444;2022-11-12T09:37:36;12.80;99.90
17146;DHT22;8688;54.444;18.444;2022-11-12T09:40:05;12.80;99.90
17146;DHT22;8688;54.444;18.444;2022-11-12T09:42:33;12.80;99.90
17146;DHT22;8688;54.444;18.444;2022-11-12T09:45:06;12.80;99.90
17146;DHT22;8688;54.444;18.444;2022-11-12T09:47:41;12.70;99.90
17146;DHT22;8688;54.444;18.444;2022-11-12T09:50:18;12.70;99.90
17146;DHT22;8688;54.444;18.444;2022-11-12T09:52:48;12.70;99.90
17146;DHT22;8688;54.444;18.444;2022-11-12T09:55:23;12.80;99.90
17146;DHT22;8688;54.444;18.444;2022-11-12T09:57:51;12.70;99.90
17146;DHT22;8688;54.444;18.444;2022-11-12T10:00:20;12.70;99.90
17146;DHT22;8688;54.444;18.444;2022-11-12T10:02:52;12.70;99.90
17146;DHT22;8688;54.444;18.444;2022-11-12T10:05:25;12.70;99.90
17146;DHT22;8688;54.444;18.444;2022-11-12T10:08:27;12.70;99.90
17146;DHT22;8688;54.444;18.444;2022-11-12T10:11:14;12.70;99.90
17146;DHT22;8688;54.444;18.444;2022-11-12T10:13:49;12.70;99.90
17146;DHT22;8688;54.444;18.444;2022-11-12T10:16:28;12.70;99.90
17146;DHT22;8688;54.444;18.444;2022-11-12T10:19:27;12.70;99.90
17146;DHT22;8688;54.444;18.444;2022-11-12T10:22:07;12.70;99.90
17146;DHT22;8688;54.444;18.444;2022-11-12T10:24:39;12.70;99.90
17146;DHT22;8688;54.444;18.444;2022-11-12T10:27:14;12.70;99.90
17146;DHT22;8688;54.444;18.444;2022-11-12T11:45:28;12.70;99.90
17146;DHT22;8688;54.444;18.444;2022-11-12T11:48:07;12.70;99.90
17146;DHT22;8688;54.444;18.444;2022-11-12T11:50:42;12.70;99.90
17146;DHT22;8688;54.444;18.444;2022-11-12T11:53:21;12.60;99.90
17146;DHT22;8688;54.444;18.444;2022-11-12T11:55:55;12.60;99.90
17146;DHT22;8688;54.444;18.444;2022-11-12T12:01:28;12.70;99.90
17146;DHT22;8688;54.444;18.444;2022-11-12T12:07:02;12.70;99.90
17146;DHT22;8688;54.444;18.444;2022-11-12T12:09:40;12.60;99.90
17146;DHT22;8688;54.444;18.444;2022-11-12T12:12:22;12.70;99.90
17146;DHT22;8688;54.444;18.444;2022-11-12T12:14:57;12.70;99.90
17146;DHT22;8688;54.444;18.444;2022-11-12T12:17:42;12.70;99.90
17146;DHT22;8688;54.444;18.444;2022-11-12T12:20:18;12.70;99.90
17146;DHT22;8688;54.444;18.444;2022-11-12T12:22:49;12.70;99.90
17146;DHT22;8688;54.444;18.444;2022-11-12T12:25:22;12.70;99.90
17146;DHT22;8688;54.444;18.444;2022-11-12T12:27:56;12.70;99.90
17146;DHT22;8688;54.444;18.444;2022-11-12T12:30:26;12.70;99.90
17146;DHT22;8688;54.444;18.444;2022-11-12T12:33:01;12.70;99.90
17146;DHT22;8688;54.444;18.444;2022-11-12T12:35:36;12.70;99.90
17146;DHT22;8688;54.444;18.444;2022-11-12T12:38:12;12.70;99.90
17146;DHT22;8688;54.444;18.444;2022-11-12T12:40:45;12.70;99.90
17146;DHT22;8688;54.444;18.444;2022-11-12T12:43:18;12.70;99.90
17146;DHT22;8688;54.444;18.444;2022-11-12T12:45:48;12.80;99.90
17146;DHT22;8688;54.444;18.444;2022-11-12T12:48:19;12.80;99.90
17146;DHT22;8688;54.444;18.444;2022-11-12T12:50:48;12.70;99.90
17146;DHT22;8688;54.444;18.444;2022-11-12T12:53:29;12.80;99.90
17146;DHT22;8688;54.444;18.444;2022-11-12T12:55:58;12.70;99.90
17146;DHT22;8688;54.444;18.444;2022-11-12T12:58:28;12.70;99.90
17146;DHT22;8688;54.444;18.444;2022-11-12T13:01:00;12.70;99.90
17146;DHT22;8688;54.444;18.444;2022-11-12T13:03:51;12.70;99.90
17146;DHT22;8688;54.444;18.444;2022-11-12T13:06:25;12.70;99.90
17146;DHT22;8688;54.444;18.444;2022-11-12T13:08:56;12.70;99.90
17146;DHT22;8688;54.444;18.444;2022-11-12T13:11:47;12.70;99.90
17146;DHT22;8688;54.444;18.444;2022-11-12T13:17:48;12.70;99.90
17146;DHT22;8688;54.444;18.444;2022-11-12T13:20:33;12.70;99.90
17146;DHT22;8688;54.444;18.444;2022-11-12T13:23:01;12.70;99.90
17146;DHT22;8688;54.444;18.444;2022-11-12T13:25:30;12.70;99.90
17146;DHT22;8688;54.444;18.444;2022-11-12T13:28:09;12.70;99.90
17146;DHT22;8688;54.444;18.444;2022-11-12T13:30:59;12.70;99.90
17146;DHT22;8688;54.444;18.444;2022-11-12T13:33:30;12.60;99.90
17146;DHT22;8688;54.444;18.444;2022-11-12T13:36:32;12.60;99.90
17146;DHT22;8688;54.444;18.444;2022-11-12T13:39:11;12.60;99.90
17146;DHT22;8688;54.444;18.444;2022-11-12T13:41:40;12.60;99.90
17146;DHT22;8688;54.444;18.444;2022-11-12T13:44:26;12.60;99.90
17146;DHT22;8688;54.444;18.444;2022-11-12T13:46:54;12.60;99.90
17146;DHT22;8688;54.444;18.444;2022-11-12T13:49:22;12.60;99.90
17146;DHT22;8688;54.444;18.444;2022-11-12T13:51:51;12.60;99.90
17146;DHT22;8688;54.444;18.444;2022-11-12T13:54:33;12.60;99.90
17146;DHT22;8688;54.444;18.444;2022-11-12T13:57:26;12.60;99.90
17146;DHT22;8688;54.444;18.444;2022-11-12T14:00:19;12.60;99.90
17146;DHT22;8688;54.444;18.444;2022-11-12T14:02:52;12.60;99.90
17146;DHT22;8688;54.444;18.444;2022-11-12T14:05:22;12.60;99.90
17146;DHT22;8688;54.444;18.444;2022-11-12T14:08:12;12.60;99.90
17146;DHT22;8688;54.444;18.444;2022-11-12T14:10:49;12.60;99.90
17146;DHT22;8688;54.444;18.444;2022-11-12T14:13:38;12.60;99.90
17146;DHT22;8688;54.444;18.444;2022-11-12T14:16:28;12.60;99.90
17146;DHT22;8688;54.444;18.444;2022-11-12T14:22:12;12.60;99.90
17146;DHT22;8688;54.444;18.444;2022-11-12T14:24:43;12.60;99.90
17146;DHT22;8688;54.444;18.444;2022-11-12T14:27:31;12.60;99.90
17146;DHT22;8688;54.444;18.444;2022-11-12T14:30:14;12.60;99.90
17146;DHT22;8688;54.444;18.444;2022-11-12T14:32:44;12.60;99.90
17146;DHT22;8688;54.444;18.444;2022-11-12T14:35:35;12.60;99.90
17146;DHT22;8688;54.444;18.444;2022-11-12T14:38:12;12.60;99.90
17146;DHT22;8688;54.444;18.444;2022-11-12T14:40:48;12.60;99.90
17146;DHT22;8688;54.444;18.444;2022-11-12T14:43:37;12.60;99.90
17146;DHT22;8688;54.444;18.444;2022-11-12T14:46:18;12.60;99.90
17146;DHT22;8688;54.444;18.444;2022-11-12T14:48:51;12.60;99.90
17146;DHT22;8688;54.444;18.444;2022-11-12T14:51:20;12.60;99.90
17146;DHT22;8688;54.444;18.444;2022-11-12T14:53:52;12.60;99.90
17146;DHT22;8688;54.444;18.444;2022-11-12T14:56:26;12.60;99.90
17146;DHT22;8688;54.444;18.444;2022-11-12T14:58:55;12.60;99.90
17146;DHT22;8688;54.444;18.444;2022-11-12T15:01:25;12.60;99.90
17146;DHT22;8688;54.444;18.444;2022-11-12T15:04:03;12.60;99.90
17146;DHT22;8688;54.444;18.444;2022-11-12T15:06:32;12.60;99.90
17146;DHT22;8688;54.444;18.444;2022-11-12T15:09:00;12.60;99.90
17146;DHT22;8688;54.444;18.444;2022-11-12T15:11:31;12.60;99.90
17146;DHT22;8688;54.444;18.444;2022-11-12T15:14:01;12.60;99.90
17146;DHT22;8688;54.444;18.444;2022-11-12T15:16:31;12.60;99.90
17146;DHT22;8688;54.444;18.444;2022-11-12T15:19:07;12.60;99.90
17146;DHT22;8688;54.444;18.444;2022-11-12T15:21:44;12.60;99.90
17146;DHT22;8688;54.444;18.444;2022-11-12T15:24:18;12.60;99.90
17146;DHT22;8688;54.444;18.444;2022-11-12T15:26:48;12.60;99.90
17146;DHT22;8688;54.444;18.444;2022-11-12T15:29:28;12.70;99.90
17146;DHT22;8688;54.444;18.444;2022-11-12T15:31:58;12.70;99.90
17146;DHT22;8688;54.444;18.444;2022-11-12T15:34:27;12.70;99.90
17146;DHT22;8688;54.444;18.444;2022-11-12T15:36:57;12.70;99.90
17146;DHT22;8688;54.444;18.444;2022-11-12T15:39:26;12.70;99.90
17146;DHT22;8688;54.444;18.444;2022-11-12T15:42:00;12.70;99.90
17146;DHT22;8688;54.444;18.444;2022-11-12T15:44:32;12.70;99.90
17146;DHT22;8688;54.444;18.444;2022-11-12T15:47:02;12.70;99.90
17146;DHT22;8688;54.444;18.444;2022-11-12T15:49:30;12.70;99.90
17146;DHT22;8688;54.444;18.444;2022-11-12T15:51:57;12.70;99.90
17146;DHT22;8688;54.444;18.444;2022-11-12T15:54:25;12.70;99.90
17146;DHT22;8688;54.444;18.444;2022-11-12T15:56:52;12.80;99.90
17146;DHT22;8688;54.444;18.444;2022-11-12T15:59:22;12.80;99.90
17146;DHT22;8688;54.444;18.444;2022-11-12T16:01:49;12.80;99.90
17146;DHT22;8688;54.444;18.444;2022-11-12T16:04:17;12.80;99.90
17146;DHT22;8688;54.444;18.444;2022-11-12T16:06:44;12.80;99.90
17146;DHT22;8688;54.444;18.444;2022-11-12T16:09:11;12.80;99.90
17146;DHT22;8688;54.444;18.444;2022-11-12T16:11:39;12.80;99.90
17146;DHT22;8688;54.444;18.444;2022-11-12T16:14:10;12.80;99.90
17146;DHT22;8688;54.444;18.444;2022-11-12T16:16:40;12.80;99.90
17146;DHT22;8688;54.444;18.444;2022-11-12T16:19:11;12.80;99.90
17146;DHT22;8688;54.444;18.444;2022-11-12T16:21:41;12.80;99.90
17146;DHT22;8688;54.444;18.444;2022-11-12T16:24:08;12.80;99.90
17146;DHT22;8688;54.444;18.444;2022-11-12T16:26:36;12.80;99.90
17146;DHT22;8688;54.444;18.444;2022-11-12T16:29:10;12.80;99.90
17146;DHT22;8688;54.444;18.444;2022-11-12T16:31:41;12.80;99.90
17146;DHT22;8688;54.444;18.444;2022-11-12T16:34:09;12.80;99.90
17146;DHT22;8688;54.444;18.444;2022-11-12T16:36:37;12.80;99.90
17146;DHT22;8688;54.444;18.444;2022-11-12T16:39:12;12.80;99.90
17146;DHT22;8688;54.444;18.444;2022-11-12T16:41:40;12.80;99.90
17146;DHT22;8688;54.444;18.444;2022-11-12T16:44:07;12.80;99.90
17146;DHT22;8688;54.444;18.444;2022-11-12T16:46:36;12.80;99.90
17146;DHT22;8688;54.444;18.444;2022-11-12T16:49:10;12.80;99.90
17146;DHT22;8688;54.444;18.444;2022-11-12T16:51:38;12.80;99.90
17146;DHT22;8688;54.444;18.444;2022-11-12T16:54:07;12.80;99.90
17146;DHT22;8688;54.444;18.444;2022-11-12T16:56:35;12.80;99.90
17146;DHT22;8688;54.444;18.444;2022-11-12T16:59:04;12.80;99.90
17146;DHT22;8688;54.444;18.444;2022-11-12T17:01:32;12.70;99.90
17146;DHT22;8688;54.444;18.444;2022-11-12T17:03:59;12.70;99.90
17146;DHT22;8688;54.444;18.444;2022-11-12T17:06:37;12.70;99.90
17146;DHT22;8688;54.444;18.444;2022-11-12T17:09:07;12.70;99.90
17146;DHT22;8688;54.444;18.444;2022-11-12T17:11:36;12.70;99.90
17146;DHT22;8688;54.444;18.444;2022-11-12T17:14:05;12.70;99.90
17146;DHT22;8688;54.444;18.444;2022-11-12T17:16:34;12.70;99.90
17146;DHT22;8688;54.444;18.444;2022-11-12T17:19:01;12.60;99.90
17146;DHT22;8688;54.444;18.444;2022-11-12T17:21:28;12.60;99.90
17146;DHT22;8688;54.444;18.444;2022-11-12T17:23:57;12.70;99.90
17146;DHT22;8688;54.444;18.444;2022-11-12T17:26:25;12.60;99.90
17146;DHT22;8688;54.444;18.444;2022-11-12T17:28:52;12.60;99.90
17146;DHT22;8688;54.444;18.444;2022-11-12T17:31:21;12.60;99.90
17146;DHT22;8688;54.444;18.444;2022-11-12T17:33:51;12.60;99.90
17146;DHT22;8688;54.444;18.444;2022-11-12T17:36:20;12.60;99.90
17146;DHT22;8688;54.444;18.444;2022-11-12T17:38:51;12.60;99.90
17146;DHT22;8688;54.444;18.444;2022-11-12T17:41:20;12.60;99.90
17146;DHT22;8688;54.444;18.444;2022-11-12T17:43:53;12.50;99.90
17146;DHT22;8688;54.444;18.444;2022-11-12T17:46:21;12.60;99.90